Terminal Aerodrome Forecast
Issued by NWS

Home | Current Version | Previous Version | Text Only | Print | Product List | Glossary On
Versions: 1 2 3 4 5 6 7 8 9 10 11 12 13 14 15
171
FTUS42 KTBW 081724
TAFPIE
TAF
KPIE 081724Z 0818/0918 23010G15KT P6SM FEW040 SCT250
     FM082100 24017G26KT P6SM SCT040 BKN250
     FM090000 26023G32KT P6SM BKN040 OVC250
     FM091000 32020G30KT P6SM BKN035=

USA.gov is the U.S. government's official web portal to all federal, state and local government web resources and services.